KOXRKSDM

Guest
Details From KOXR - Oxnard
To KSDM - BROWN FLD MUNI
Flight Number -
Tags generated
Created
Modified
Stats Distance 152 nm / 282 km
Max Altitude 9,800 ft / 2,987 m
Waypoints 3
Social Downloads 0
Likes 0
Share VATSIM

Download

Looking for another format? Having issues loading an existing format? Contact us
Advertisement - Login to hide

Notes

Basic altitude profile: - Ascent Rate: 2500ft/min - Ascent Speed: 250kts - Cruise Altitude: 27000ft - Cruise Speed: 420kts - Descent Rate: 1500ft/min - Descent Speed: 250kts Options: - Use NATs: yes - Use PACOTS: yes - Use low airways: no - Use high airways: yes

Route

KOXR OCN KSDM

ID Type Via Altitude Latitude Longitude Leg Dist Tot Dist Heading (true) Name
O KOXR APT - 0 ft / 0 m 34.20082˚ -119.20723˚ - 0 nm - Oxnard
OCN VOR - 9,800 ft / 2,987 m 33.24064˚ -117.41772˚ 106 nm 106 nm 122° / 123° OCEANSIDE VORTAC
O KSDM APT - 0 ft / 0 m 32.57192˚ -116.97991˚ 45 nm 152 nm 151° / 151° BROWN FLD MUNI

Altitude Profile

Advertisement - Login to hide

KOXR

Details ICAO KOXR (OXR)
Name Oxnard
Region United States
Timezone America/Los_Angeles (UTC-8.0)
Stats Elevation 43 ft / 13 m (AMSL)
Location 34.200819° -119.207233°
Runways 1
Magnetic Variation 12.211° E

METAR

KOXR 121951Z 08011KT 10SM FU CLR 29/M19 A3012 RMK AO2 SLP199 T02941194

Decode

TAF

TAF KOXR 121727Z 1218/1318 06008KT P6SM SKC FM122100 29008KT 6SM FU SKC FM130300 VRB03KT 6SM FU SKC FM131000 06008KT 6SM FU SKC

Decode

Departure Runways

ID Width Length Bearing (true) Bearing (mag) Surface Threshold Offset Overrun Length
07 98 ft / 30 m 5,953 ft / 1,815 m 90.53° 78.32° Asphalt 0 ft / 0 m 0 ft / 0 m
25 98 ft / 30 m 5,953 ft / 1,815 m 270.54° 258.33° Asphalt 1,378 ft / 420 m 0 ft / 0 m

KSDM

Details ICAO KSDM (SDM)
Name BROWN FLD MUNI
Region United States
Timezone America/Los_Angeles (UTC-8.0)
Stats Elevation 526 ft / 160 m (AMSL)
Location 32.571917° -116.979915°
Runways 2
Magnetic Variation 11.451° E

METAR

KSDM 121953Z 32005KT 10SM CLR 27/M16 A3010 RMK AO2 SLP188 T02721161

Decode

TAF

Not found

Destination Runways

ID Width Length Bearing (true) Bearing (mag) Surface Threshold Offset Overrun Length
08L 151 ft / 46 m 7,957 ft / 2,425 m 95.59° 84.14° Asphalt 0 ft / 0 m 0 ft / 0 m
08R 75 ft / 23 m 3,158 ft / 963 m 95.70° 84.25° Asphalt 0 ft / 0 m 0 ft / 0 m
26L 75 ft / 23 m 3,158 ft / 963 m 275.70° 264.25° Asphalt 0 ft / 0 m 1,706 ft / 520 m
26R 151 ft / 46 m 7,957 ft / 2,425 m 275.61° 264.16° Asphalt 0 ft / 0 m 0 ft / 0 m

Popular Alternatives